sensor_id;sensor_type;location;lat;lon;timestamp;P1;durP1;ratioP1;P2;durP2;ratioP2
64887;SDS011;51386;53.082;8.816;2023-04-01T00:00:01;8.17;;;6.23;;
64887;SDS011;51386;53.082;8.816;2023-04-01T00:02:28;6.53;;;5.93;;
64887;SDS011;51386;53.082;8.816;2023-04-01T00:04:55;7.13;;;5.53;;
64887;SDS011;51386;53.082;8.816;2023-04-01T00:07:22;5.97;;;5.37;;
64887;SDS011;51386;53.082;8.816;2023-04-01T00:09:50;7.00;;;5.80;;
64887;SDS011;51386;53.082;8.816;2023-04-01T00:12:17;8.07;;;5.27;;
64887;SDS011;51386;53.082;8.816;2023-04-01T00:14:44;6.10;;;5.43;;
64887;SDS011;51386;53.082;8.816;2023-04-01T00:17:11;6.17;;;5.50;;
64887;SDS011;51386;53.082;8.816;2023-04-01T00:19:38;6.30;;;5.70;;
64887;SDS011;51386;53.082;8.816;2023-04-01T00:22:05;8.03;;;6.87;;
64887;SDS011;51386;53.082;8.816;2023-04-01T00:24:32;6.70;;;6.00;;
64887;SDS011;51386;53.082;8.816;2023-04-01T00:27:01;6.67;;;6.07;;
64887;SDS011;51386;53.082;8.816;2023-04-01T00:29:28;6.90;;;6.23;;
64887;SDS011;51386;53.082;8.816;2023-04-01T00:31:56;6.47;;;5.83;;
64887;SDS011;51386;53.082;8.816;2023-04-01T00:34:23;5.80;;;5.30;;
64887;SDS011;51386;53.082;8.816;2023-04-01T00:36:50;6.50;;;5.90;;
64887;SDS011;51386;53.082;8.816;2023-04-01T00:39:18;7.93;;;6.30;;
64887;SDS011;51386;53.082;8.816;2023-04-01T00:41:46;7.17;;;6.43;;
64887;SDS011;51386;53.082;8.816;2023-04-01T00:44:16;7.13;;;6.40;;
64887;SDS011;51386;53.082;8.816;2023-04-01T00:46:47;6.30;;;5.80;;
64887;SDS011;51386;53.082;8.816;2023-04-01T00:49:15;6.47;;;5.80;;
64887;SDS011;51386;53.082;8.816;2023-04-01T00:51:46;7.43;;;6.73;;
64887;SDS011;51386;53.082;8.816;2023-04-01T00:54:18;6.83;;;6.13;;
64887;SDS011;51386;53.082;8.816;2023-04-01T00:56:49;6.17;;;5.57;;
64887;SDS011;51386;53.082;8.816;2023-04-01T00:59:25;6.60;;;6.00;;
64887;SDS011;51386;53.082;8.816;2023-04-01T01:01:56;6.80;;;6.10;;
64887;SDS011;51386;53.082;8.816;2023-04-01T01:04:24;7.37;;;6.67;;
64887;SDS011;51386;53.082;8.816;2023-04-01T01:06:55;6.30;;;5.70;;
64887;SDS011;51386;53.082;8.816;2023-04-01T01:09:40;7.00;;;6.30;;
64887;SDS011;51386;53.082;8.816;2023-04-01T01:12:20;5.80;;;5.27;;
64887;SDS011;51386;53.082;8.816;2023-04-01T01:15:00;6.50;;;5.90;;
64887;SDS011;51386;53.082;8.816;2023-04-01T01:17:46;7.57;;;5.47;;
64887;SDS011;51386;53.082;8.816;2023-04-01T01:20:42;7.43;;;5.70;;
64887;SDS011;51386;53.082;8.816;2023-04-01T01:23:54;6.07;;;5.47;;
64887;SDS011;51386;53.082;8.816;2023-04-01T01:27:02;5.87;;;5.33;;
64887;SDS011;51386;53.082;8.816;2023-04-01T01:29:44;8.60;;;6.27;;
64887;SDS011;51386;53.082;8.816;2023-04-01T01:32:39;5.83;;;5.23;;
64887;SDS011;51386;53.082;8.816;2023-04-01T01:35:25;6.10;;;5.13;;
64887;SDS011;51386;53.082;8.816;2023-04-01T01:37:59;6.83;;;6.13;;
64887;SDS011;51386;53.082;8.816;2023-04-01T01:40:31;5.47;;;4.97;;
64887;SDS011;51386;53.082;8.816;2023-04-01T01:43:04;5.07;;;4.67;;
64887;SDS011;51386;53.082;8.816;2023-04-01T01:45:36;6.93;;;6.27;;
64887;SDS011;51386;53.082;8.816;2023-04-01T01:48:10;6.43;;;5.50;;
64887;SDS011;51386;53.082;8.816;2023-04-01T01:50:39;5.97;;;5.20;;
64887;SDS011;51386;53.082;8.816;2023-04-01T01:53:10;5.30;;;4.80;;
64887;SDS011;51386;53.082;8.816;2023-04-01T01:55:40;5.47;;;4.97;;
64887;SDS011;51386;53.082;8.816;2023-04-01T01:58:12;6.17;;;5.67;;
64887;SDS011;51386;53.082;8.816;2023-04-01T02:00:44;5.50;;;5.00;;
64887;SDS011;51386;53.082;8.816;2023-04-01T02:03:19;5.77;;;5.00;;
64887;SDS011;51386;53.082;8.816;2023-04-01T02:05:50;6.07;;;4.80;;
64887;SDS011;51386;53.082;8.816;2023-04-01T02:08:22;5.60;;;5.10;;
64887;SDS011;51386;53.082;8.816;2023-04-01T02:10:55;6.13;;;5.53;;
64887;SDS011;51386;53.082;8.816;2023-04-01T02:13:27;7.47;;;6.10;;
64887;SDS011;51386;53.082;8.816;2023-04-01T02:16:02;6.63;;;6.03;;
64887;SDS011;51386;53.082;8.816;2023-04-01T02:18:38;6.00;;;5.50;;
64887;SDS011;51386;53.082;8.816;2023-04-01T02:21:10;5.77;;;5.37;;
64887;SDS011;51386;53.082;8.816;2023-04-01T02:23:39;6.67;;;6.03;;
64887;SDS011;51386;53.082;8.816;2023-04-01T02:26:08;8.07;;;5.80;;
64887;SDS011;51386;53.082;8.816;2023-04-01T02:28:39;6.70;;;6.00;;
64887;SDS011;51386;53.082;8.816;2023-04-01T02:31:09;6.80;;;6.20;;
64887;SDS011;51386;53.082;8.816;2023-04-01T02:33:38;8.70;;;7.90;;
64887;SDS011;51386;53.082;8.816;2023-04-01T02:36:06;5.23;;;4.83;;
64887;SDS011;51386;53.082;8.816;2023-04-01T02:38:39;6.87;;;6.27;;
64887;SDS011;51386;53.082;8.816;2023-04-01T02:41:08;6.53;;;5.53;;
64887;SDS011;51386;53.082;8.816;2023-04-01T02:43:35;6.47;;;5.97;;
64887;SDS011;51386;53.082;8.816;2023-04-01T02:46:03;5.97;;;5.37;;
64887;SDS011;51386;53.082;8.816;2023-04-01T02:48:30;7.87;;;6.07;;
64887;SDS011;51386;53.082;8.816;2023-04-01T02:50:57;5.57;;;5.07;;
64887;SDS011;51386;53.082;8.816;2023-04-01T02:53:25;6.60;;;6.00;;
64887;SDS011;51386;53.082;8.816;2023-04-01T02:55:52;5.70;;;5.10;;
64887;SDS011;51386;53.082;8.816;2023-04-01T02:58:19;5.50;;;5.10;;
64887;SDS011;51386;53.082;8.816;2023-04-01T03:00:46;6.03;;;5.13;;
64887;SDS011;51386;53.082;8.816;2023-04-01T03:03:13;5.80;;;5.30;;
64887;SDS011;51386;53.082;8.816;2023-04-01T03:05:40;6.00;;;5.50;;
64887;SDS011;51386;53.082;8.816;2023-04-01T03:08:07;6.17;;;5.67;;
64887;SDS011;51386;53.082;8.816;2023-04-01T03:10:36;5.67;;;5.17;;
64887;SDS011;51386;53.082;8.816;2023-04-01T03:13:02;6.40;;;5.30;;
64887;SDS011;51386;53.082;8.816;2023-04-01T03:15:29;5.83;;;5.30;;
64887;SDS011;51386;53.082;8.816;2023-04-01T03:17:57;5.03;;;4.63;;
64887;SDS011;51386;53.082;8.816;2023-04-01T03:20:24;5.70;;;5.10;;
64887;SDS011;51386;53.082;8.816;2023-04-01T03:22:51;6.00;;;5.50;;
64887;SDS011;51386;53.082;8.816;2023-04-01T03:25:18;5.63;;;5.13;;
64887;SDS011;51386;53.082;8.816;2023-04-01T03:27:47;5.27;;;4.33;;
64887;SDS011;51386;53.082;8.816;2023-04-01T03:30:14;5.93;;;5.33;;
64887;SDS011;51386;53.082;8.816;2023-04-01T03:32:41;6.10;;;5.60;;
64887;SDS011;51386;53.082;8.816;2023-04-01T03:35:08;7.47;;;5.60;;
64887;SDS011;51386;53.082;8.816;2023-04-01T03:37:36;5.37;;;4.90;;
64887;SDS011;51386;53.082;8.816;2023-04-01T03:40:04;5.53;;;5.03;;
64887;SDS011;51386;53.082;8.816;2023-04-01T03:42:32;6.13;;;5.30;;
64887;SDS011;51386;53.082;8.816;2023-04-01T03:45:00;6.23;;;5.33;;
64887;SDS011;51386;53.082;8.816;2023-04-01T03:47:28;6.67;;;5.33;;
64887;SDS011;51386;53.082;8.816;2023-04-01T03:49:56;5.93;;;5.33;;
64887;SDS011;51386;53.082;8.816;2023-04-01T03:52:23;6.13;;;5.27;;
64887;SDS011;51386;53.082;8.816;2023-04-01T03:54:49;5.17;;;4.77;;
64887;SDS011;51386;53.082;8.816;2023-04-01T03:57:16;4.90;;;4.50;;
64887;SDS011;51386;53.082;8.816;2023-04-01T03:59:43;5.77;;;5.07;;
64887;SDS011;51386;53.082;8.816;2023-04-01T04:02:12;4.80;;;4.40;;
64887;SDS011;51386;53.082;8.816;2023-04-01T04:04:39;5.20;;;4.60;;
64887;SDS011;51386;53.082;8.816;2023-04-01T04:07:06;5.23;;;4.80;;
64887;SDS011;51386;53.082;8.816;2023-04-01T04:09:33;5.13;;;4.60;;
64887;SDS011;51386;53.082;8.816;2023-04-01T04:12:00;6.27;;;4.93;;
64887;SDS011;51386;53.082;8.816;2023-04-01T04:14:27;5.10;;;4.60;;
64887;SDS011;51386;53.082;8.816;2023-04-01T04:16:54;6.07;;;4.60;;
64887;SDS011;51386;53.082;8.816;2023-04-01T04:19:22;4.90;;;4.50;;
64887;SDS011;51386;53.082;8.816;2023-04-01T04:21:49;5.20;;;4.50;;
64887;SDS011;51386;53.082;8.816;2023-04-01T04:24:16;4.47;;;4.07;;
64887;SDS011;51386;53.082;8.816;2023-04-01T04:26:43;4.53;;;4.13;;
64887;SDS011;51386;53.082;8.816;2023-04-01T04:29:10;4.30;;;3.90;;
64887;SDS011;51386;53.082;8.816;2023-04-01T04:31:37;4.80;;;4.20;;
64887;SDS011;51386;53.082;8.816;2023-04-01T04:34:04;5.00;;;4.50;;
64887;SDS011;51386;53.082;8.816;2023-04-01T04:36:32;4.77;;;4.23;;
64887;SDS011;51386;53.082;8.816;2023-04-01T04:38:59;4.67;;;4.23;;
64887;SDS011;51386;53.082;8.816;2023-04-01T04:41:28;4.50;;;4.10;;
64887;SDS011;51386;53.082;8.816;2023-04-01T04:43:55;4.67;;;4.23;;
64887;SDS011;51386;53.082;8.816;2023-04-01T04:46:24;5.20;;;4.70;;
64887;SDS011;51386;53.082;8.816;2023-04-01T04:48:52;4.67;;;3.93;;
64887;SDS011;51386;53.082;8.816;2023-04-01T04:51:19;4.30;;;4.00;;
64887;SDS011;51386;53.082;8.816;2023-04-01T04:53:49;7.87;;;4.43;;
64887;SDS011;51386;53.082;8.816;2023-04-01T04:56:18;4.47;;;4.07;;
64887;SDS011;51386;53.082;8.816;2023-04-01T04:58:46;4.80;;;4.07;;
64887;SDS011;51386;53.082;8.816;2023-04-01T05:01:15;4.47;;;3.80;;
64887;SDS011;51386;53.082;8.816;2023-04-01T05:03:43;4.30;;;3.87;;
64887;SDS011;51386;53.082;8.816;2023-04-01T05:06:12;4.13;;;3.73;;
64887;SDS011;51386;53.082;8.816;2023-04-01T05:08:44;5.10;;;3.60;;
64887;SDS011;51386;53.082;8.816;2023-04-01T05:11:13;3.87;;;3.57;;
64887;SDS011;51386;53.082;8.816;2023-04-01T05:13:43;4.63;;;4.23;;
64887;SDS011;51386;53.082;8.816;2023-04-01T05:16:12;3.97;;;3.27;;
64887;SDS011;51386;53.082;8.816;2023-04-01T05:18:42;3.60;;;3.30;;
64887;SDS011;51386;53.082;8.816;2023-04-01T05:21:10;3.40;;;3.10;;
64887;SDS011;51386;53.082;8.816;2023-04-01T05:23:39;3.77;;;3.43;;
64887;SDS011;51386;53.082;8.816;2023-04-01T05:26:06;3.47;;;3.17;;
64887;SDS011;51386;53.082;8.816;2023-04-01T05:28:37;3.97;;;3.67;;
64887;SDS011;51386;53.082;8.816;2023-04-01T05:31:05;5.77;;;3.40;;
64887;SDS011;51386;53.082;8.816;2023-04-01T05:33:33;3.53;;;2.90;;
64887;SDS011;51386;53.082;8.816;2023-04-01T05:36:08;7.27;;;6.57;;
64887;SDS011;51386;53.082;8.816;2023-04-01T05:38:38;3.93;;;3.30;;
64887;SDS011;51386;53.082;8.816;2023-04-01T05:41:05;3.60;;;3.27;;
64887;SDS011;51386;53.082;8.816;2023-04-01T05:43:32;3.43;;;3.10;;
64887;SDS011;51386;53.082;8.816;2023-04-01T05:46:03;3.73;;;3.27;;
64887;SDS011;51386;53.082;8.816;2023-04-01T05:48:30;3.80;;;3.40;;
64887;SDS011;51386;53.082;8.816;2023-04-01T05:50:58;3.77;;;3.37;;
64887;SDS011;51386;53.082;8.816;2023-04-01T05:53:25;3.53;;;2.80;;
64887;SDS011;51386;53.082;8.816;2023-04-01T05:55:52;3.00;;;2.80;;
64887;SDS011;51386;53.082;8.816;2023-04-01T05:58:19;3.27;;;2.93;;
64887;SDS011;51386;53.082;8.816;2023-04-01T06:00:46;2.77;;;2.57;;
64887;SDS011;51386;53.082;8.816;2023-04-01T06:03:14;3.17;;;2.97;;
64887;SDS011;51386;53.082;8.816;2023-04-01T06:05:42;3.40;;;2.80;;
64887;SDS011;51386;53.082;8.816;2023-04-01T06:08:11;2.63;;;2.43;;
64887;SDS011;51386;53.082;8.816;2023-04-01T06:10:50;3.47;;;2.97;;
64887;SDS011;51386;53.082;8.816;2023-04-01T06:13:35;3.10;;;2.87;;
64887;SDS011;51386;53.082;8.816;2023-04-01T06:16:21;3.43;;;3.13;;
64887;SDS011;51386;53.082;8.816;2023-04-01T06:19:14;2.97;;;2.77;;
64887;SDS011;51386;53.082;8.816;2023-04-01T06:22:01;3.17;;;2.50;;
64887;SDS011;51386;53.082;8.816;2023-04-01T06:25:12;3.30;;;2.83;;
64887;SDS011;51386;53.082;8.816;2023-04-01T06:28:29;3.00;;;2.80;;
64887;SDS011;51386;53.082;8.816;2023-04-01T06:31:35;2.63;;;2.43;;
64887;SDS011;51386;53.082;8.816;2023-04-01T06:34:27;2.90;;;2.70;;
64887;SDS011;51386;53.082;8.816;2023-04-01T06:37:27;2.60;;;2.40;;
64887;SDS011;51386;53.082;8.816;2023-04-01T06:40:22;2.67;;;2.47;;
64887;SDS011;51386;53.082;8.816;2023-04-01T06:43:25;4.27;;;2.27;;
64887;SDS011;51386;53.082;8.816;2023-04-01T06:46:07;2.27;;;2.10;;
64887;SDS011;51386;53.082;8.816;2023-04-01T06:48:46;2.27;;;2.17;;
64887;SDS011;51386;53.082;8.816;2023-04-01T06:51:33;2.53;;;2.30;;
64887;SDS011;51386;53.082;8.816;2023-04-01T06:54:14;2.40;;;2.20;;
64887;SDS011;51386;53.082;8.816;2023-04-01T06:56:48;2.70;;;2.50;;
64887;SDS011;51386;53.082;8.816;2023-04-01T06:59:24;2.53;;;2.00;;
64887;SDS011;51386;53.082;8.816;2023-04-01T07:01:57;2.90;;;2.60;;
64887;SDS011;51386;53.082;8.816;2023-04-01T07:04:30;2.60;;;2.40;;
64887;SDS011;51386;53.082;8.816;2023-04-01T07:07:04;2.93;;;2.63;;
64887;SDS011;51386;53.082;8.816;2023-04-01T07:09:54;5.03;;;3.80;;
64887;SDS011;51386;53.082;8.816;2023-04-01T07:12:30;2.77;;;2.43;;
64887;SDS011;51386;53.082;8.816;2023-04-01T07:15:11;2.47;;;2.27;;
64887;SDS011;51386;53.082;8.816;2023-04-01T07:17:45;3.03;;;2.83;;
64887;SDS011;51386;53.082;8.816;2023-04-01T07:20:22;2.37;;;2.13;;
64887;SDS011;51386;53.082;8.816;2023-04-01T07:22:56;2.33;;;2.13;;
64887;SDS011;51386;53.082;8.816;2023-04-01T07:25:27;2.60;;;2.10;;
64887;SDS011;51386;53.082;8.816;2023-04-01T07:28:01;1.90;;;1.80;;
64887;SDS011;51386;53.082;8.816;2023-04-01T07:30:33;2.57;;;2.17;;
64887;SDS011;51386;53.082;8.816;2023-04-01T07:33:15;2.20;;;2.00;;
64887;SDS011;51386;53.082;8.816;2023-04-01T07:35:50;2.90;;;2.70;;
64887;SDS011;51386;53.082;8.816;2023-04-01T07:38:29;2.27;;;2.10;;
64887;SDS011;51386;53.082;8.816;2023-04-01T07:41:12;2.43;;;2.23;;
64887;SDS011;51386;53.082;8.816;2023-04-01T07:43:55;2.47;;;1.87;;
64887;SDS011;51386;53.082;8.816;2023-04-01T07:49:33;2.60;;;2.10;;
64887;SDS011;51386;53.082;8.816;2023-04-01T07:52:17;3.30;;;2.10;;
64887;SDS011;51386;53.082;8.816;2023-04-01T07:54:57;3.63;;;1.83;;
64887;SDS011;51386;53.082;8.816;2023-04-01T07:57:34;3.50;;;1.80;;
64887;SDS011;51386;53.082;8.816;2023-04-01T08:00:12;2.00;;;1.90;;
64887;SDS011;51386;53.082;8.816;2023-04-01T08:05:49;1.80;;;1.53;;
64887;SDS011;51386;53.082;8.816;2023-04-01T08:08:26;2.00;;;1.77;;
64887;SDS011;51386;53.082;8.816;2023-04-01T08:11:14;2.43;;;1.83;;
64887;SDS011;51386;53.082;8.816;2023-04-01T08:13:58;3.13;;;1.53;;
64887;SDS011;51386;53.082;8.816;2023-04-01T08:16:37;2.90;;;1.70;;
64887;SDS011;51386;53.082;8.816;2023-04-01T08:19:21;16.83;;;15.10;;
64887;SDS011;51386;53.082;8.816;2023-04-01T08:22:07;5.40;;;3.90;;
64887;SDS011;51386;53.082;8.816;2023-04-01T08:24:44;2.30;;;1.87;;
64887;SDS011;51386;53.082;8.816;2023-04-01T08:27:17;4.83;;;4.07;;
64887;SDS011;51386;53.082;8.816;2023-04-01T08:29:53;1.80;;;1.70;;
64887;SDS011;51386;53.082;8.816;2023-04-01T08:32:29;2.70;;;1.70;;
64887;SDS011;51386;53.082;8.816;2023-04-01T08:35:07;2.20;;;1.47;;
64887;SDS011;51386;53.082;8.816;2023-04-01T08:37:44;2.43;;;1.40;;
64887;SDS011;51386;53.082;8.816;2023-04-01T08:40:17;1.27;;;1.17;;
64887;SDS011;51386;53.082;8.816;2023-04-01T08:43:24;1.43;;;1.33;;
64887;SDS011;51386;53.082;8.816;2023-04-01T08:46:56;1.50;;;1.40;;
64887;SDS011;51386;53.082;8.816;2023-04-01T08:50:04;2.73;;;1.40;;
64887;SDS011;51386;53.082;8.816;2023-04-01T08:52:58;2.43;;;1.70;;
64887;SDS011;51386;53.082;8.816;2023-04-01T08:55:44;2.00;;;1.27;;
64887;SDS011;51386;53.082;8.816;2023-04-01T08:58:36;4.60;;;2.30;;
64887;SDS011;51386;53.082;8.816;2023-04-01T09:01:33;2.70;;;1.53;;
64887;SDS011;51386;53.082;8.816;2023-04-01T09:04:53;1.60;;;1.50;;
64887;SDS011;51386;53.082;8.816;2023-04-01T09:07:53;2.30;;;2.10;;
64887;SDS011;51386;53.082;8.816;2023-04-01T09:10:39;1.87;;;1.20;;
64887;SDS011;51386;53.082;8.816;2023-04-01T09:16:37;2.60;;;1.50;;
64887;SDS011;51386;53.082;8.816;2023-04-01T09:19:41;5.37;;;3.17;;
64887;SDS011;51386;53.082;8.816;2023-04-01T09:22:39;1.60;;;1.50;;
64887;SDS011;51386;53.082;8.816;2023-04-01T09:25:30;1.50;;;1.40;;
64887;SDS011;51386;53.082;8.816;2023-04-01T09:28:17;1.40;;;1.30;;
64887;SDS011;51386;53.082;8.816;2023-04-01T09:31:04;1.10;;;1.10;;
64887;SDS011;51386;53.082;8.816;2023-04-01T09:34:18;1.30;;;1.10;;
64887;SDS011;51386;53.082;8.816;2023-04-01T09:37:20;1.57;;;1.47;;
64887;SDS011;51386;53.082;8.816;2023-04-01T09:40:09;1.20;;;1.10;;
64887;SDS011;51386;53.082;8.816;2023-04-01T09:42:59;5.47;;;3.93;;
64887;SDS011;51386;53.082;8.816;2023-04-01T09:46:02;1.70;;;1.60;;
64887;SDS011;51386;53.082;8.816;2023-04-01T09:48:51;3.40;;;1.53;;
64887;SDS011;51386;53.082;8.816;2023-04-01T09:52:04;1.30;;;1.20;;
64887;SDS011;51386;53.082;8.816;2023-04-01T09:55:12;1.17;;;0.90;;
64887;SDS011;51386;53.082;8.816;2023-04-01T09:58:09;1.53;;;1.00;;
64887;SDS011;51386;53.082;8.816;2023-04-01T10:01:30;2.07;;;1.00;;
64887;SDS011;51386;53.082;8.816;2023-04-01T10:04:40;1.40;;;0.93;;
64887;SDS011;51386;53.082;8.816;2023-04-01T10:07:59;1.70;;;1.13;;
64887;SDS011;51386;53.082;8.816;2023-04-01T10:11:10;2.07;;;1.40;;
64887;SDS011;51386;53.082;8.816;2023-04-01T10:14:20;0.93;;;0.70;;
64887;SDS011;51386;53.082;8.816;2023-04-01T10:17:34;1.63;;;0.80;;
64887;SDS011;51386;53.082;8.816;2023-04-01T10:20:37;0.43;;;0.43;;
64887;SDS011;51386;53.082;8.816;2023-04-01T10:26:48;0.43;;;0.43;;
64887;SDS011;51386;53.082;8.816;2023-04-01T10:29:41;0.40;;;0.40;;
64887;SDS011;51386;53.082;8.816;2023-04-01T10:33:01;0.40;;;0.40;;
64887;SDS011;51386;53.082;8.816;2023-04-01T10:36:15;0.90;;;0.60;;
64887;SDS011;51386;53.082;8.816;2023-04-01T10:39:33;0.40;;;0.40;;
64887;SDS011;51386;53.082;8.816;2023-04-01T10:42:54;0.60;;;0.60;;
64887;SDS011;51386;53.082;8.816;2023-04-01T10:46:12;0.40;;;0.40;;
64887;SDS011;51386;53.082;8.816;2023-04-01T10:52:52;0.50;;;0.50;;
64887;SDS011;51386;53.082;8.816;2023-04-01T10:55:50;0.80;;;0.77;;
64887;SDS011;51386;53.082;8.816;2023-04-01T10:58:56;0.60;;;0.60;;
64887;SDS011;51386;53.082;8.816;2023-04-01T11:08:51;0.70;;;0.70;;
64887;SDS011;51386;53.082;8.816;2023-04-01T11:12:06;1.47;;;0.97;;
64887;SDS011;51386;53.082;8.816;2023-04-01T11:15:20;0.77;;;0.73;;
64887;SDS011;51386;53.082;8.816;2023-04-01T11:21:33;1.07;;;0.60;;
64887;SDS011;51386;53.082;8.816;2023-04-01T11:24:38;0.53;;;0.53;;
64887;SDS011;51386;53.082;8.816;2023-04-01T11:27:48;0.70;;;0.70;;
64887;SDS011;51386;53.082;8.816;2023-04-01T11:30:49;0.60;;;0.60;;
64887;SDS011;51386;53.082;8.816;2023-04-01T11:33:33;0.97;;;0.53;;
64887;SDS011;51386;53.082;8.816;2023-04-01T11:36:15;0.87;;;0.87;;
64887;SDS011;51386;53.082;8.816;2023-04-01T11:39:03;1.40;;;1.30;;
64887;SDS011;51386;53.082;8.816;2023-04-01T11:41:49;1.93;;;1.73;;
64887;SDS011;51386;53.082;8.816;2023-04-01T11:44:27;1.00;;;0.93;;
64887;SDS011;51386;53.082;8.816;2023-04-01T11:47:09;0.90;;;0.90;;
64887;SDS011;51386;53.082;8.816;2023-04-01T11:49:53;0.70;;;0.70;;
64887;SDS011;51386;53.082;8.816;2023-04-01T11:52:47;0.70;;;0.70;;
64887;SDS011;51386;53.082;8.816;2023-04-01T11:55:50;0.70;;;0.70;;
64887;SDS011;51386;53.082;8.816;2023-04-01T11:58:36;0.67;;;0.67;;
64887;SDS011;51386;53.082;8.816;2023-04-01T12:01:26;0.67;;;0.67;;
64887;SDS011;51386;53.082;8.816;2023-04-01T12:04:17;0.80;;;0.80;;
64887;SDS011;51386;53.082;8.816;2023-04-01T12:07:06;0.70;;;0.70;;
64887;SDS011;51386;53.082;8.816;2023-04-01T12:09:49;0.80;;;0.80;;
64887;SDS011;51386;53.082;8.816;2023-04-01T12:12:33;1.30;;;1.20;;
64887;SDS011;51386;53.082;8.816;2023-04-01T12:15:29;1.30;;;1.20;;
64887;SDS011;51386;53.082;8.816;2023-04-01T12:18:20;0.90;;;0.90;;
64887;SDS011;51386;53.082;8.816;2023-04-01T12:21:00;1.27;;;0.77;;
64887;SDS011;51386;53.082;8.816;2023-04-01T12:23:51;1.00;;;1.00;;
64887;SDS011;51386;53.082;8.816;2023-04-01T12:27:09;0.93;;;0.90;;
64887;SDS011;51386;53.082;8.816;2023-04-01T12:33:21;0.80;;;0.80;;
64887;SDS011;51386;53.082;8.816;2023-04-01T12:36:08;0.83;;;0.83;;
64887;SDS011;51386;53.082;8.816;2023-04-01T12:39:07;1.83;;;1.37;;
64887;SDS011;51386;53.082;8.816;2023-04-01T12:41:52;1.20;;;1.10;;
64887;SDS011;51386;53.082;8.816;2023-04-01T12:44:37;0.80;;;0.80;;
64887;SDS011;51386;53.082;8.816;2023-04-01T12:47:27;0.80;;;0.80;;
64887;SDS011;51386;53.082;8.816;2023-04-01T12:50:16;1.10;;;1.00;;
64887;SDS011;51386;53.082;8.816;2023-04-01T12:53:19;0.77;;;0.77;;
64887;SDS011;51386;53.082;8.816;2023-04-01T12:56:08;0.87;;;0.87;;
64887;SDS011;51386;53.082;8.816;2023-04-01T12:59:06;1.33;;;0.90;;
64887;SDS011;51386;53.082;8.816;2023-04-01T13:01:59;1.43;;;0.70;;
64887;SDS011;51386;53.082;8.816;2023-04-01T13:04:51;1.43;;;0.77;;
64887;SDS011;51386;53.082;8.816;2023-04-01T13:07:59;0.60;;;0.60;;
64887;SDS011;51386;53.082;8.816;2023-04-01T13:10:52;0.70;;;0.70;;
64887;SDS011;51386;53.082;8.816;2023-04-01T13:13:53;0.80;;;0.80;;
64887;SDS011;51386;53.082;8.816;2023-04-01T13:17:01;0.77;;;0.77;;
64887;SDS011;51386;53.082;8.816;2023-04-01T13:19:44;0.73;;;0.73;;
64887;SDS011;51386;53.082;8.816;2023-04-01T13:22:34;0.70;;;0.70;;
64887;SDS011;51386;53.082;8.816;2023-04-01T13:25:20;0.80;;;0.80;;
64887;SDS011;51386;53.082;8.816;2023-04-01T13:28:03;0.60;;;0.60;;
64887;SDS011;51386;53.082;8.816;2023-04-01T13:30:43;1.50;;;0.70;;
64887;SDS011;51386;53.082;8.816;2023-04-01T13:33:24;0.50;;;0.50;;
64887;SDS011;51386;53.082;8.816;2023-04-01T13:36:05;2.80;;;2.17;;
64887;SDS011;51386;53.082;8.816;2023-04-01T13:38:56;1.10;;;1.00;;
64887;SDS011;51386;53.082;8.816;2023-04-01T13:42:06;0.77;;;0.77;;
64887;SDS011;51386;53.082;8.816;2023-04-01T13:44:46;0.77;;;0.70;;
64887;SDS011;51386;53.082;8.816;2023-04-01T13:47:28;0.70;;;0.70;;
64887;SDS011;51386;53.082;8.816;2023-04-01T13:50:32;0.70;;;0.70;;
64887;SDS011;51386;53.082;8.816;2023-04-01T13:53:29;0.60;;;0.60;;
64887;SDS011;51386;53.082;8.816;2023-04-01T13:56:47;0.60;;;0.60;;
64887;SDS011;51386;53.082;8.816;2023-04-01T13:59:31;0.70;;;0.70;;
64887;SDS011;51386;53.082;8.816;2023-04-01T14:02:34;0.70;;;0.70;;
64887;SDS011;51386;53.082;8.816;2023-04-01T14:05:36;1.30;;;1.20;;
64887;SDS011;51386;53.082;8.816;2023-04-01T14:08:24;0.80;;;0.80;;
64887;SDS011;51386;53.082;8.816;2023-04-01T14:11:13;0.90;;;0.70;;
64887;SDS011;51386;53.082;8.816;2023-04-01T14:13:56;0.70;;;0.70;;
64887;SDS011;51386;53.082;8.816;2023-04-01T14:16:52;1.00;;;0.90;;
64887;SDS011;51386;53.082;8.816;2023-04-01T14:19:53;1.23;;;1.13;;
64887;SDS011;51386;53.082;8.816;2023-04-01T14:22:52;0.80;;;0.80;;
64887;SDS011;51386;53.082;8.816;2023-04-01T14:26:00;0.80;;;0.80;;
64887;SDS011;51386;53.082;8.816;2023-04-01T14:28:42;0.80;;;0.80;;
64887;SDS011;51386;53.082;8.816;2023-04-01T14:31:26;1.20;;;1.10;;
64887;SDS011;51386;53.082;8.816;2023-04-01T14:34:06;1.57;;;1.47;;
64887;SDS011;51386;53.082;8.816;2023-04-01T14:37:01;1.10;;;1.00;;
64887;SDS011;51386;53.082;8.816;2023-04-01T14:40:20;2.50;;;2.20;;
64887;SDS011;51386;53.082;8.816;2023-04-01T14:46:06;1.10;;;1.00;;
64887;SDS011;51386;53.082;8.816;2023-04-01T14:48:50;1.77;;;1.67;;
64887;SDS011;51386;53.082;8.816;2023-04-01T14:51:22;1.97;;;1.50;;
64887;SDS011;51386;53.082;8.816;2023-04-01T14:54:09;2.43;;;1.87;;
64887;SDS011;51386;53.082;8.816;2023-04-01T14:56:49;1.70;;;1.53;;
64887;SDS011;51386;53.082;8.816;2023-04-01T14:59:32;2.90;;;2.60;;
64887;SDS011;51386;53.082;8.816;2023-04-01T15:02:09;2.90;;;2.10;;
64887;SDS011;51386;53.082;8.816;2023-04-01T15:04:57;3.30;;;2.33;;
64887;SDS011;51386;53.082;8.816;2023-04-01T15:07:48;2.00;;;1.90;;
64887;SDS011;51386;53.082;8.816;2023-04-01T15:10:48;2.27;;;1.87;;
64887;SDS011;51386;53.082;8.816;2023-04-01T15:13:46;3.37;;;2.57;;
64887;SDS011;51386;53.082;8.816;2023-04-01T15:16:55;2.40;;;2.07;;
64887;SDS011;51386;53.082;8.816;2023-04-01T15:19:48;1.87;;;1.77;;
64887;SDS011;51386;53.082;8.816;2023-04-01T15:22:43;3.03;;;2.70;;
64887;SDS011;51386;53.082;8.816;2023-04-01T15:25:28;3.10;;;2.47;;
64887;SDS011;51386;53.082;8.816;2023-04-01T15:28:14;2.50;;;2.30;;
64887;SDS011;51386;53.082;8.816;2023-04-01T15:30:54;2.47;;;1.93;;
64887;SDS011;51386;53.082;8.816;2023-04-01T15:33:38;2.27;;;2.10;;
64887;SDS011;51386;53.082;8.816;2023-04-01T15:36:21;2.53;;;1.90;;
64887;SDS011;51386;53.082;8.816;2023-04-01T15:39:04;2.70;;;2.00;;
64887;SDS011;51386;53.082;8.816;2023-04-01T15:41:43;2.23;;;1.70;;
64887;SDS011;51386;53.082;8.816;2023-04-01T15:44:36;1.53;;;1.43;;
64887;SDS011;51386;53.082;8.816;2023-04-01T15:47:26;2.20;;;2.00;;
64887;SDS011;51386;53.082;8.816;2023-04-01T15:53:18;1.87;;;1.73;;
64887;SDS011;51386;53.082;8.816;2023-04-01T15:56:10;2.23;;;1.87;;
64887;SDS011;51386;53.082;8.816;2023-04-01T15:58:58;2.87;;;2.20;;
64887;SDS011;51386;53.082;8.816;2023-04-01T16:01:43;2.60;;;2.30;;
64887;SDS011;51386;53.082;8.816;2023-04-01T16:07:23;2.20;;;2.00;;
64887;SDS011;51386;53.082;8.816;2023-04-01T16:10:23;3.93;;;2.43;;
64887;SDS011;51386;53.082;8.816;2023-04-01T16:13:14;2.20;;;2.00;;
64887;SDS011;51386;53.082;8.816;2023-04-01T16:15:57;2.53;;;1.67;;
64887;SDS011;51386;53.082;8.816;2023-04-01T16:18:45;2.33;;;2.10;;
64887;SDS011;51386;53.082;8.816;2023-04-01T16:21:36;1.90;;;1.80;;
64887;SDS011;51386;53.082;8.816;2023-04-01T16:24:17;2.13;;;1.93;;
64887;SDS011;51386;53.082;8.816;2023-04-01T16:27:00;2.13;;;1.90;;
64887;SDS011;51386;53.082;8.816;2023-04-01T16:29:38;2.93;;;2.10;;
64887;SDS011;51386;53.082;8.816;2023-04-01T16:32:27;2.33;;;2.00;;
64887;SDS011;51386;53.082;8.816;2023-04-01T16:35:14;3.40;;;1.90;;
64887;SDS011;51386;53.082;8.816;2023-04-01T16:38:03;5.07;;;3.07;;
64887;SDS011;51386;53.082;8.816;2023-04-01T16:40:44;2.07;;;1.90;;
64887;SDS011;51386;53.082;8.816;2023-04-01T16:43:25;4.10;;;2.20;;
64887;SDS011;51386;53.082;8.816;2023-04-01T16:46:13;4.10;;;2.40;;
64887;SDS011;51386;53.082;8.816;2023-04-01T16:48:58;3.20;;;2.10;;
64887;SDS011;51386;53.082;8.816;2023-04-01T16:51:32;2.63;;;2.03;;
64887;SDS011;51386;53.082;8.816;2023-04-01T16:54:12;2.60;;;2.40;;
64887;SDS011;51386;53.082;8.816;2023-04-01T16:56:56;3.27;;;2.10;;